createdAt,value
2019-03-27T00:01:47.381Z,10.17
2019-03-27T00:04:13.524Z,9.47
2019-03-27T00:06:39.692Z,10.00
2019-03-27T00:09:06.051Z,9.90
2019-03-27T00:11:33.014Z,10.20
2019-03-27T00:13:59.163Z,10.57
2019-03-27T00:16:25.319Z,9.87
2019-03-27T00:18:51.467Z,9.93
2019-03-27T00:21:17.619Z,10.23
2019-03-27T00:23:44.020Z,10.27
2019-03-27T00:26:10.741Z,10.63
2019-03-27T00:28:37.005Z,11.27
2019-03-27T00:31:03.147Z,11.50
2019-03-27T00:33:29.362Z,10.40
2019-03-27T00:35:55.505Z,11.03
2019-03-27T00:38:21.658Z,11.73
2019-03-27T00:40:48.026Z,11.03
2019-03-27T00:43:14.348Z,12.20
2019-03-27T00:45:40.484Z,11.83
2019-03-27T00:48:06.640Z,11.40
2019-03-27T00:50:33.095Z,11.23
2019-03-27T00:52:59.248Z,12.23
2019-03-27T00:55:26.391Z,13.03
2019-03-27T00:57:53.548Z,12.20
2019-03-27T01:00:28.796Z,12.03
2019-03-27T01:02:54.954Z,13.17
2019-03-27T01:05:21.315Z,12.20
2019-03-27T01:07:47.666Z,12.47
2019-03-27T01:10:14.388Z,13.13
2019-03-27T01:12:40.543Z,13.37
2019-03-27T01:15:07.101Z,12.00
2019-03-27T01:17:33.268Z,12.13
2019-03-27T01:19:59.437Z,12.90
2019-03-27T01:22:26.589Z,12.33
2019-03-27T01:24:52.746Z,12.37
2019-03-27T01:27:18.891Z,12.43
2019-03-27T01:29:45.052Z,13.07
2019-03-27T01:32:11.199Z,13.47
2019-03-27T01:34:37.356Z,13.60
2019-03-27T01:37:03.512Z,13.27
2019-03-27T01:39:29.663Z,12.70
2019-03-27T01:41:55.808Z,14.17
2019-03-27T01:44:22.307Z,13.43
2019-03-27T01:46:48.454Z,12.20
2019-03-27T01:49:14.615Z,14.47
2019-03-27T01:51:40.769Z,14.63
2019-03-27T01:54:06.919Z,14.00
2019-03-27T01:56:33.066Z,14.07
2019-03-27T01:58:59.226Z,12.33
2019-03-27T02:01:25.379Z,14.13
2019-03-27T02:03:51.543Z,14.07
2019-03-27T02:06:17.695Z,14.60
2019-03-27T02:08:43.858Z,15.23
2019-03-27T02:11:10.295Z,13.77
2019-03-27T02:13:36.460Z,13.93
2019-03-27T02:16:07.075Z,14.63
2019-03-27T02:18:30.668Z,14.70
2019-03-27T02:20:56.820Z,14.87
2019-03-27T02:23:22.967Z,14.33
2019-03-27T02:25:49.116Z,15.63
2019-03-27T02:28:15.268Z,15.07
2019-03-27T02:30:41.429Z,14.17
2019-03-27T02:33:07.577Z,14.73
2019-03-27T02:35:33.736Z,14.50
2019-03-27T02:37:59.885Z,14.27
2019-03-27T02:40:26.043Z,14.63
2019-03-27T02:42:52.193Z,15.07
2019-03-27T02:45:18.339Z,15.00
2019-03-27T02:47:44.487Z,14.83
2019-03-27T02:50:10.640Z,14.93
2019-03-27T02:52:36.768Z,16.83
2019-03-27T02:55:06.231Z,16.33
2019-03-27T02:57:32.367Z,15.53
2019-03-27T02:59:58.515Z,15.67
2019-03-27T03:02:24.647Z,15.23
2019-03-27T03:04:50.802Z,15.40
2019-03-27T03:07:16.936Z,16.23
2019-03-27T03:09:43.079Z,17.80
2019-03-27T03:12:09.264Z,18.17
2019-03-27T03:14:35.403Z,20.90
2019-03-27T03:17:01.544Z,21.80
2019-03-27T03:19:28.778Z,21.47
2019-03-27T03:21:54.922Z,22.10
2019-03-27T03:24:21.360Z,22.10
2019-03-27T03:26:51.051Z,21.80
2019-03-27T03:29:15.565Z,20.53
2019-03-27T03:31:41.712Z,18.47
2019-03-27T03:34:07.860Z,18.50
2019-03-27T03:36:34.354Z,18.83
2019-03-27T03:39:00.481Z,18.07
2019-03-27T03:41:26.992Z,16.67
2019-03-27T03:43:53.295Z,18.13
2019-03-27T03:46:19.785Z,16.43
2019-03-27T03:48:46.924Z,16.97
2019-03-27T03:51:13.276Z,16.97
2019-03-27T03:53:39.540Z,16.00
2019-03-27T03:56:06.486Z,17.17
2019-03-27T03:58:35.345Z,16.93
2019-03-27T04:01:01.693Z,17.23
2019-03-27T04:03:29.116Z,17.80
2019-03-27T04:05:55.366Z,17.33
2019-03-27T04:08:21.514Z,17.30
2019-03-27T04:10:47.662Z,17.60
2019-03-27T04:13:14.906Z,18.10
2019-03-27T04:15:42.151Z,18.40
2019-03-27T04:18:08.620Z,17.73
2019-03-27T04:20:34.773Z,17.10
2019-03-27T04:23:00.917Z,18.67
2019-03-27T04:25:28.072Z,18.57
2019-03-27T04:27:54.307Z,20.33
2019-03-27T04:30:20.458Z,18.93
2019-03-27T04:32:46.607Z,20.87
2019-03-27T04:35:12.741Z,19.43
2019-03-27T04:37:39.019Z,21.03
2019-03-27T04:40:05.361Z,21.03
2019-03-27T04:42:31.507Z,20.93
2019-03-27T04:44:57.750Z,20.40
2019-03-27T04:47:32.177Z,21.47
2019-03-27T04:49:51.943Z,20.60
2019-03-27T04:52:18.099Z,20.27
2019-03-27T04:54:44.231Z,20.40
2019-03-27T04:57:11.378Z,19.97
2019-03-27T04:59:37.767Z,20.40
2019-03-27T05:02:06.497Z,20.33
2019-03-27T05:04:33.666Z,20.80
2019-03-27T05:06:59.806Z,20.13
2019-03-27T05:09:25.955Z,21.23
2019-03-27T05:11:52.107Z,21.13
2019-03-27T05:14:18.246Z,20.90
2019-03-27T05:16:44.379Z,22.43
2019-03-27T05:19:10.551Z,22.80
2019-03-27T05:21:36.703Z,27.77
2019-03-27T05:24:03.036Z,22.63
2019-03-27T05:26:29.170Z,22.63
2019-03-27T05:28:55.310Z,21.37
2019-03-27T05:31:21.451Z,21.73
2019-03-27T05:33:47.851Z,21.77
2019-03-27T05:36:13.992Z,22.50
2019-03-27T05:38:40.137Z,22.00
2019-03-27T05:41:06.279Z,21.93
2019-03-27T05:43:32.656Z,22.80
2019-03-27T05:45:58.799Z,20.57
2019-03-27T05:48:24.985Z,21.30
2019-03-27T05:50:51.607Z,21.13
2019-03-27T05:53:17.750Z,22.10
2019-03-27T05:55:43.897Z,22.30
2019-03-27T05:58:10.049Z,21.40
2019-03-27T06:00:36.479Z,23.13
2019-03-27T06:03:03.629Z,23.13
2019-03-27T06:05:29.783Z,23.50
2019-03-27T06:07:55.932Z,22.27
2019-03-27T06:10:22.095Z,23.93
2019-03-27T06:12:48.230Z,22.37
2019-03-27T06:15:14.655Z,25.23
2019-03-27T06:17:40.810Z,24.77
2019-03-27T06:20:09.206Z,25.93
2019-03-27T06:22:35.339Z,26.50
2019-03-27T06:25:01.528Z,28.33
2019-03-27T06:27:27.659Z,26.23
2019-03-27T06:29:53.814Z,24.77
2019-03-27T06:32:19.950Z,24.50
2019-03-27T06:34:46.442Z,23.60
2019-03-27T06:37:13.599Z,22.97
2019-03-27T06:39:40.011Z,24.30
2019-03-27T06:42:06.142Z,21.63
2019-03-27T06:44:32.290Z,23.07
2019-03-27T06:46:58.704Z,22.23
2019-03-27T06:49:24.855Z,21.70
2019-03-27T06:51:51.992Z,23.23
2019-03-27T06:54:18.135Z,22.60
2019-03-27T06:56:44.271Z,21.77
2019-03-27T06:59:10.420Z,21.63
2019-03-27T07:01:36.924Z,21.17
2019-03-27T07:04:10.515Z,22.63
2019-03-27T07:06:31.608Z,21.37
2019-03-27T07:08:57.770Z,21.00
2019-03-27T07:11:23.952Z,20.90
2019-03-27T07:13:50.088Z,21.60
2019-03-27T07:16:16.243Z,21.33
2019-03-27T07:18:42.379Z,20.93
2019-03-27T07:21:08.772Z,19.97
2019-03-27T07:23:35.219Z,20.70
2019-03-27T07:26:01.470Z,21.23
2019-03-27T07:28:27.622Z,19.87
2019-03-27T07:30:53.767Z,18.57
2019-03-27T07:33:19.932Z,18.60
2019-03-27T07:35:46.077Z,17.90
2019-03-27T07:38:12.470Z,18.17
2019-03-27T07:40:38.851Z,17.40
2019-03-27T07:43:04.987Z,17.80
2019-03-27T07:45:31.131Z,18.73
2019-03-27T07:47:57.271Z,18.43
2019-03-27T07:50:23.418Z,18.40
2019-03-27T07:52:49.552Z,18.63
2019-03-27T07:55:19.759Z,18.17
2019-03-27T07:57:43.753Z,18.90
2019-03-27T08:00:16.748Z,18.43
2019-03-27T08:02:43.087Z,17.43
2019-03-27T08:05:09.732Z,17.17
2019-03-27T08:07:36.123Z,16.87
2019-03-27T08:10:04.967Z,15.53
2019-03-27T08:12:31.112Z,14.17
2019-03-27T08:14:57.259Z,16.07
2019-03-27T08:17:23.419Z,15.07
2019-03-27T08:19:49.826Z,11.23
2019-03-27T08:22:16.254Z,13.07
2019-03-27T08:24:42.406Z,12.20
2019-03-27T08:27:08.538Z,12.00
2019-03-27T08:29:34.683Z,12.90
2019-03-27T08:32:00.929Z,15.00
2019-03-27T08:34:27.079Z,12.30
2019-03-27T08:36:53.227Z,13.27
2019-03-27T08:39:19.364Z,13.30
2019-03-27T08:41:45.554Z,11.23
2019-03-27T08:44:11.699Z,11.40
2019-03-27T08:46:37.866Z,10.63
2019-03-27T08:49:04.002Z,10.57
2019-03-27T08:51:31.142Z,10.17
2019-03-27T08:53:57.285Z,10.60
2019-03-27T08:56:23.445Z,10.83
2019-03-27T08:58:49.592Z,8.20
2019-03-27T09:01:15.735Z,9.60
2019-03-27T09:03:41.966Z,9.93
2019-03-27T09:06:09.122Z,7.87
2019-03-27T09:08:35.275Z,8.13
2019-03-27T09:11:04.508Z,9.63
2019-03-27T09:13:29.459Z,9.50
2019-03-27T09:15:55.615Z,9.13
2019-03-27T09:18:21.780Z,7.47
2019-03-27T09:20:48.037Z,8.20
2019-03-27T09:23:14.195Z,8.20
2019-03-27T09:25:40.679Z,8.60
2019-03-27T09:28:08.131Z,9.37
2019-03-27T09:30:34.307Z,9.13
2019-03-27T09:33:00.438Z,9.20
2019-03-27T09:35:26.609Z,8.90
2019-03-27T09:37:52.764Z,9.20
2019-03-27T09:40:18.926Z,9.30
2019-03-27T09:42:45.091Z,9.83
2019-03-27T09:45:12.730Z,8.53
2019-03-27T09:47:38.991Z,10.30
2019-03-27T09:50:06.439Z,9.37
2019-03-27T09:52:32.588Z,9.20
2019-03-27T09:54:58.730Z,7.90
2019-03-27T09:57:24.901Z,8.07
2019-03-27T09:59:51.335Z,8.20
2019-03-27T10:02:17.492Z,8.57
2019-03-27T10:04:43.630Z,7.70
2019-03-27T10:07:10.026Z,7.60
2019-03-27T10:09:36.171Z,7.70
2019-03-27T10:12:02.740Z,6.53
2019-03-27T10:14:29.126Z,8.37
2019-03-27T10:16:55.281Z,8.10
2019-03-27T10:19:21.443Z,8.40
2019-03-27T10:21:47.590Z,8.13
2019-03-27T10:24:14.034Z,7.57
2019-03-27T10:26:42.603Z,6.93
2019-03-27T10:29:08.507Z,7.33
2019-03-27T10:31:34.708Z,6.20
2019-03-27T10:34:00.847Z,6.00
2019-03-27T10:36:27.001Z,6.37
2019-03-27T10:38:53.140Z,4.93
2019-03-27T10:41:19.333Z,4.90
2019-03-27T10:43:45.805Z,4.53
2019-03-27T10:46:11.957Z,4.43
2019-03-27T10:48:51.553Z,4.57
2019-03-27T10:51:06.199Z,3.80
2019-03-27T10:53:32.363Z,3.37
2019-03-27T10:55:58.550Z,3.70
2019-03-27T10:58:26.625Z,4.00
2019-03-27T11:00:52.799Z,4.00
2019-03-27T11:03:19.960Z,4.77
2019-03-27T11:05:46.103Z,5.13
2019-03-27T11:08:12.252Z,3.73
2019-03-27T11:10:38.439Z,3.97
2019-03-27T11:13:04.583Z,4.53
2019-03-27T11:15:30.980Z,4.63
2019-03-27T11:17:57.330Z,4.50
2019-03-27T11:20:30.875Z,3.80
2019-03-27T11:22:51.523Z,3.50
2019-03-27T11:25:17.767Z,4.37
2019-03-27T11:27:43.917Z,4.23
2019-03-27T11:30:10.762Z,4.37
2019-03-27T11:32:37.006Z,4.30
2019-03-27T11:35:04.555Z,4.43
2019-03-27T11:37:31.023Z,4.67
2019-03-27T11:39:57.184Z,4.10
2019-03-27T11:42:23.341Z,3.87
2019-03-27T11:44:49.863Z,3.90
2019-03-27T11:47:16.095Z,3.00
2019-03-27T11:49:42.334Z,3.17
2019-03-27T11:52:09.462Z,3.13
2019-03-27T11:54:35.592Z,3.60
2019-03-27T11:57:01.995Z,3.03
2019-03-27T11:59:28.143Z,3.23
2019-03-27T12:01:54.276Z,3.60
2019-03-27T12:04:20.415Z,4.40
2019-03-27T12:06:46.558Z,4.10
2019-03-27T12:09:12.711Z,4.27
2019-03-27T12:11:57.067Z,4.50
2019-03-27T12:14:23.214Z,4.40
2019-03-27T12:16:50.354Z,4.67
2019-03-27T12:19:16.487Z,4.60
2019-03-27T12:21:42.902Z,4.27
2019-03-27T12:24:10.050Z,4.30
2019-03-27T12:26:36.497Z,4.03
2019-03-27T12:29:02.639Z,4.27
2019-03-27T12:31:28.786Z,4.83
2019-03-27T12:33:54.931Z,4.50
2019-03-27T12:36:21.077Z,3.93
2019-03-27T12:38:47.226Z,4.77
2019-03-27T12:41:13.356Z,5.00
2019-03-27T12:43:39.543Z,4.60
2019-03-27T12:46:06.783Z,4.50
2019-03-27T12:48:32.943Z,5.10
2019-03-27T12:51:12.123Z,5.17
2019-03-27T12:53:27.467Z,6.97
2019-03-27T12:55:53.614Z,4.80
2019-03-27T12:58:19.749Z,4.43
2019-03-27T13:00:45.889Z,4.67
2019-03-27T13:03:12.274Z,4.73
2019-03-27T13:05:38.410Z,4.50
2019-03-27T13:08:05.662Z,4.53
2019-03-27T13:10:31.802Z,4.77
2019-03-27T13:12:57.946Z,5.50
2019-03-27T13:15:24.091Z,4.53
2019-03-27T13:17:50.560Z,4.47
2019-03-27T13:20:17.107Z,5.07
2019-03-27T13:22:43.537Z,5.03
2019-03-27T13:25:09.889Z,4.60
2019-03-27T13:27:36.459Z,5.00
2019-03-27T13:30:07.134Z,5.20
2019-03-27T13:32:33.572Z,4.67
2019-03-27T13:34:59.736Z,5.27
2019-03-27T13:37:26.144Z,5.10
2019-03-27T13:39:52.322Z,4.77
2019-03-27T13:42:18.805Z,4.37
2019-03-27T13:44:44.958Z,4.77
2019-03-27T13:47:11.214Z,5.80
2019-03-27T13:49:37.562Z,4.33
2019-03-27T13:52:03.811Z,4.27
2019-03-27T13:54:29.959Z,4.53
2019-03-27T13:56:56.087Z,5.30
2019-03-27T13:59:22.243Z,4.70
2019-03-27T14:01:48.380Z,4.70
2019-03-27T14:04:14.530Z,5.20
2019-03-27T14:06:40.660Z,4.67
2019-03-27T14:09:07.016Z,4.83
2019-03-27T14:11:33.250Z,5.20
2019-03-27T14:14:10.544Z,4.77
2019-03-27T14:16:27.442Z,4.80
2019-03-27T14:18:53.691Z,4.40
2019-03-27T14:21:23.329Z,4.90
2019-03-27T14:23:48.895Z,5.00
2019-03-27T14:26:15.042Z,5.00
2019-03-27T14:28:41.197Z,4.93
2019-03-27T14:31:07.662Z,4.90
2019-03-27T14:33:33.794Z,4.80
2019-03-27T14:35:59.947Z,4.33
2019-03-27T14:38:26.088Z,4.60
2019-03-27T14:40:52.476Z,4.90
2019-03-27T14:43:18.907Z,5.27
2019-03-27T14:45:45.053Z,4.80
2019-03-27T14:48:11.200Z,4.77
2019-03-27T14:50:37.595Z,4.90
2019-03-27T14:53:04.025Z,4.93
2019-03-27T14:55:30.172Z,5.27
2019-03-27T14:57:56.311Z,5.43
2019-03-27T15:00:22.559Z,5.10
2019-03-27T15:02:48.706Z,5.07
2019-03-27T15:05:15.047Z,5.10
2019-03-27T15:07:41.175Z,5.27
2019-03-27T15:10:07.975Z,4.87
2019-03-27T15:12:34.617Z,5.70
2019-03-27T15:15:00.766Z,5.27
2019-03-27T15:17:26.907Z,5.43
2019-03-27T15:19:53.103Z,5.57
2019-03-27T15:22:22.655Z,5.37
2019-03-27T15:24:47.284Z,5.47
2019-03-27T15:27:13.445Z,5.23
2019-03-27T15:29:39.574Z,6.30
2019-03-27T15:32:05.848Z,5.40
2019-03-27T15:34:32.281Z,4.83
2019-03-27T15:36:58.431Z,5.10
2019-03-27T15:39:24.668Z,4.80
2019-03-27T15:41:51.055Z,5.80
2019-03-27T15:44:17.195Z,5.47
2019-03-27T15:46:43.339Z,7.40
2019-03-27T15:49:09.486Z,7.27
2019-03-27T15:51:35.627Z,5.57
2019-03-27T15:54:02.099Z,5.63
2019-03-27T15:56:28.243Z,6.10
2019-03-27T15:58:56.282Z,5.20
2019-03-27T16:01:22.578Z,5.33
2019-03-27T16:03:48.734Z,5.13
2019-03-27T16:06:15.190Z,5.27
2019-03-27T16:08:41.371Z,5.30
2019-03-27T16:11:07.507Z,5.73
2019-03-27T16:13:33.655Z,5.80
2019-03-27T16:15:59.795Z,4.80
2019-03-27T16:18:26.224Z,5.27
2019-03-27T16:20:52.371Z,5.37
2019-03-27T16:23:18.502Z,5.57
2019-03-27T16:25:44.639Z,5.67
2019-03-27T16:28:10.987Z,5.67
2019-03-27T16:30:37.367Z,5.33
2019-03-27T16:33:03.799Z,5.00
2019-03-27T16:35:30.039Z,5.97
2019-03-27T16:37:56.303Z,5.20
2019-03-27T16:40:42.922Z,5.70
2019-03-27T16:43:09.177Z,5.97
2019-03-27T16:45:35.315Z,6.43
2019-03-27T16:48:01.466Z,6.20
2019-03-27T16:50:28.594Z,6.10
2019-03-27T16:53:03.501Z,6.43
2019-03-27T16:55:22.786Z,6.37
2019-03-27T16:57:51.318Z,5.90
2019-03-27T17:00:17.687Z,6.30
2019-03-27T17:02:43.822Z,7.20
2019-03-27T17:05:09.967Z,6.30
2019-03-27T17:07:36.103Z,6.87
2019-03-27T17:10:05.283Z,6.83
2019-03-27T17:12:31.672Z,7.43
2019-03-27T17:14:58.158Z,6.50
2019-03-27T17:17:42.675Z,6.53
2019-03-27T17:20:10.630Z,6.07
2019-03-27T17:22:36.763Z,6.23
2019-03-27T17:25:05.119Z,5.93
2019-03-27T17:27:31.254Z,6.07
2019-03-27T17:29:57.402Z,6.60
2019-03-27T17:32:23.551Z,6.73
2019-03-27T17:34:51.925Z,6.97
2019-03-27T17:37:17.743Z,7.73
2019-03-27T17:39:43.903Z,7.53
2019-03-27T17:42:10.318Z,6.80
2019-03-27T17:44:36.470Z,8.00
2019-03-27T17:47:02.603Z,8.50
2019-03-27T17:49:28.764Z,8.03
2019-03-27T17:51:54.916Z,8.70
2019-03-27T17:54:21.365Z,6.90
2019-03-27T17:56:48.664Z,6.63
2019-03-27T17:59:14.823Z,7.70
2019-03-27T18:01:41.359Z,7.40
2019-03-27T18:04:07.502Z,7.30
2019-03-27T18:06:34.655Z,7.27
2019-03-27T18:09:00.809Z,7.40
2019-03-27T18:11:26.943Z,7.77
2019-03-27T18:13:53.069Z,7.87
2019-03-27T18:16:19.231Z,7.87
2019-03-27T18:18:45.370Z,8.73
2019-03-27T18:21:11.527Z,8.63
2019-03-27T18:23:45.932Z,7.90
2019-03-27T18:26:05.721Z,8.00
2019-03-27T18:28:32.165Z,8.77
2019-03-27T18:30:58.311Z,7.87
2019-03-27T18:33:24.453Z,8.63
2019-03-27T18:35:50.857Z,8.33
2019-03-27T18:38:16.986Z,9.43
2019-03-27T18:40:43.236Z,9.40
2019-03-27T18:43:09.387Z,9.03
2019-03-27T18:45:35.558Z,9.47
2019-03-27T18:48:01.798Z,8.60
2019-03-27T18:50:28.202Z,9.17
2019-03-27T18:52:54.639Z,8.53
2019-03-27T18:55:26.259Z,9.30
2019-03-27T18:57:59.544Z,9.43
2019-03-27T19:00:17.444Z,9.83
2019-03-27T19:02:43.659Z,10.13
2019-03-27T19:05:10.024Z,9.77
2019-03-27T19:07:36.153Z,9.83
2019-03-27T19:10:04.416Z,10.20
2019-03-27T19:12:32.308Z,10.37
2019-03-27T19:14:58.444Z,10.80
2019-03-27T19:17:24.601Z,11.30
2019-03-27T19:19:50.735Z,11.10
2019-03-27T19:22:16.888Z,10.20
2019-03-27T19:24:43.024Z,12.93
2019-03-27T19:27:09.189Z,11.13
2019-03-27T19:29:35.423Z,11.47
2019-03-27T19:32:01.595Z,11.27
2019-03-27T19:34:27.750Z,10.80
2019-03-27T19:36:53.910Z,10.67
2019-03-27T19:39:20.058Z,9.90
2019-03-27T19:41:46.315Z,10.30
2019-03-27T19:44:12.696Z,10.27
2019-03-27T19:46:38.955Z,10.40
2019-03-27T19:49:05.373Z,9.90
2019-03-27T19:51:32.535Z,10.87
2019-03-27T19:53:58.672Z,9.40
2019-03-27T19:56:24.818Z,10.77
2019-03-27T19:58:51.308Z,10.70
2019-03-27T20:01:17.443Z,12.13
2019-03-27T20:03:43.596Z,11.37
2019-03-27T20:06:09.809Z,11.90
2019-03-27T20:08:36.194Z,12.53
2019-03-27T20:11:02.332Z,12.37
2019-03-27T20:13:28.503Z,13.07
2019-03-27T20:15:54.652Z,13.00
2019-03-27T20:18:20.804Z,13.23
2019-03-27T20:20:46.941Z,12.90
2019-03-27T20:23:15.195Z,12.57
2019-03-27T20:25:41.160Z,12.17
2019-03-27T20:28:07.593Z,12.30
2019-03-27T20:30:33.754Z,12.60
2019-03-27T20:33:00.184Z,12.70
2019-03-27T20:35:26.580Z,13.17
2019-03-27T20:37:52.724Z,12.10
2019-03-27T20:40:19.087Z,12.67
2019-03-27T20:42:45.471Z,12.47
2019-03-27T20:45:12.059Z,12.70
2019-03-27T20:47:38.539Z,13.50
2019-03-27T20:50:05.587Z,13.27
2019-03-27T20:52:31.751Z,13.33
2019-03-27T20:54:57.998Z,12.87
2019-03-27T20:57:24.126Z,12.47
2019-03-27T20:59:50.382Z,12.90
2019-03-27T21:02:16.527Z,14.50
2019-03-27T21:04:42.919Z,13.47
2019-03-27T21:07:09.075Z,13.60
2019-03-27T21:09:35.228Z,14.67
2019-03-27T21:12:01.366Z,17.63
2019-03-27T21:14:27.527Z,19.07
2019-03-27T21:16:54.000Z,17.10
2019-03-27T21:19:20.154Z,13.73
2019-03-27T21:21:46.338Z,12.57
2019-03-27T21:24:12.583Z,12.07
2019-03-27T21:26:38.774Z,11.90
2019-03-27T21:29:05.039Z,12.13
2019-03-27T21:31:31.250Z,12.63
2019-03-27T21:33:57.789Z,12.07
2019-03-27T21:36:24.140Z,10.87
2019-03-27T21:38:50.281Z,12.10
2019-03-27T21:41:16.419Z,12.93
2019-03-27T21:43:42.566Z,12.37
2019-03-27T21:46:08.723Z,11.83
2019-03-27T21:48:34.850Z,12.40
2019-03-27T21:51:00.995Z,13.20
2019-03-27T21:53:27.142Z,11.57
2019-03-27T21:55:53.518Z,12.17
2019-03-27T21:58:19.656Z,11.53
2019-03-27T22:00:45.802Z,12.20
2019-03-27T22:03:11.991Z,11.73
2019-03-27T22:05:38.135Z,12.03
2019-03-27T22:08:04.379Z,12.10
2019-03-27T22:10:30.819Z,12.53
2019-03-27T22:12:56.967Z,11.87
2019-03-27T22:15:23.103Z,11.03
2019-03-27T22:17:49.251Z,12.60
2019-03-27T22:20:15.387Z,12.47
2019-03-27T22:22:41.550Z,13.00
2019-03-27T22:25:07.890Z,12.20
2019-03-27T22:27:34.022Z,12.57
2019-03-27T22:30:00.365Z,13.53
2019-03-27T22:32:26.610Z,13.50
2019-03-27T22:34:52.771Z,12.63
2019-03-27T22:37:18.919Z,13.13
2019-03-27T22:39:45.055Z,12.57
2019-03-27T22:42:11.203Z,13.17
2019-03-27T22:44:37.336Z,13.13
2019-03-27T22:47:03.483Z,13.37
2019-03-27T22:49:29.617Z,13.43
2019-03-27T22:51:55.818Z,13.33
2019-03-27T22:54:21.953Z,12.57
2019-03-27T22:56:48.107Z,14.07
2019-03-27T22:59:14.250Z,13.77
2019-03-27T23:01:46.136Z,14.23
2019-03-27T23:04:12.279Z,13.57
2019-03-27T23:06:38.430Z,14.17
2019-03-27T23:09:05.226Z,14.57
2019-03-27T23:11:31.583Z,13.60
2019-03-27T23:13:58.006Z,12.47
2019-03-27T23:16:24.138Z,13.83
2019-03-27T23:18:50.278Z,13.70
2019-03-27T23:21:16.412Z,13.43
2019-03-27T23:23:42.559Z,12.87
2019-03-27T23:26:09.134Z,12.50
2019-03-27T23:28:35.662Z,12.00
2019-03-27T23:31:01.910Z,12.20
2019-03-27T23:33:28.056Z,11.97
2019-03-27T23:35:54.195Z,11.60
2019-03-27T23:38:20.343Z,11.73
2019-03-27T23:40:46.485Z,10.87
2019-03-27T23:43:12.938Z,12.57
2019-03-27T23:45:39.311Z,11.63
2019-03-27T23:48:05.803Z,11.30
2019-03-27T23:50:32.235Z,11.30
2019-03-27T23:52:58.453Z,10.97
2019-03-27T23:55:24.589Z,11.27
2019-03-27T23:57:50.835Z,11.83
